Terminal Aerodrome Forecast
Issued by NWS

Home | Current Version | Previous Version | Text Only | Print | Product List | Glossary On
Versions: 1 2 3 4 5 6 7 8 9 10 11 12 13 14 15 16 17 18 19 20 21
000
FTUS43 KDMX 262337
TAFMCW
TAF
KMCW 262337Z 2700/2724 15007KT P6SM SCT060 OVC140
     FM270300 15007KT P6SM -TSRA OVC050CB
     FM270900 13006KT P6SM SHRA BKN020 OVC050
     FM271300 14008KT P6SM VCSH OVC025
     FM271900 18007KT P6SM VCSH SCT030 BKN040=

USA.gov is the U.S. government's official web portal to all federal, state and local government web resources and services.